Time;durP1;ratioP1;P1;durP2;ratioP2;P2;SDS_P1;SDS_P2;PMS_P1;PMS_P2;Temp;Humidity;BMP_temperature;BMP_pressure;BME280_temperature;BME280_humidity;BME280_pressure;Samples;Min_cycle;Max_cycle;Signal;HPM_P1;HPM_P2
2021/03/01 00:00:51;;;;;;;11.90;7.67;;;8.60;1.00;;;;;;5084486;28;20486;-78
2021/03/01 00:03:19;;;;;;;11.10;7.00;;;8.60;1.00;;;;;;5103624;28;20453;-78
2021/03/01 00:05:46;;;;;;;11.40;6.67;;;8.50;1.00;;;;;;5080398;28;20619;-78
2021/03/01 00:08:13;;;;;;;12.43;7.00;;;8.50;1.00;;;;;;5075646;28;20481;-81
2021/03/01 00:10:40;;;;;;;11.80;7.10;;;8.40;1.00;;;;;;5125192;28;20458;-81
2021/03/01 00:13:08;;;;;;;13.50;7.40;;;9.00;1.00;;;;;;5085880;28;20531;-81
2021/03/01 00:15:36;;;;;;;10.50;7.37;;;8.40;1.00;;;;;;5108794;28;21012;-81
2021/03/01 00:18:04;;;;;;;11.10;7.67;;;8.40;1.00;;;;;;5107824;28;20882;-81
2021/03/01 00:20:31;;;;;;;9.30;5.73;;;8.30;1.00;;;;;;5112933;27;20479;-81
2021/03/01 00:22:58;;;;;;;8.50;6.00;;;8.30;1.00;;;;;;5088125;28;20552;-80
2021/03/01 00:25:27;;;;;;;14.07;6.47;;;8.30;1.00;;;;;;5104514;28;20479;-82
2021/03/01 00:27:54;;;;;;;10.43;6.77;;;8.50;1.00;;;;;;5106832;27;20473;-81
2021/03/01 00:30:23;;;;;;;11.10;7.10;;;8.70;1.00;;;;;;5079085;28;20451;-81
2021/03/01 00:32:50;;;;;;;8.23;6.13;;;8.20;1.00;;;;;;5110750;28;20440;-81
2021/03/01 00:35:18;;;;;;;9.53;6.50;;;8.80;1.00;;;;;;5106062;28;20459;-81
2021/03/01 00:37:45;;;;;;;11.30;8.07;;;8.20;1.00;;;;;;5115683;28;20456;-80
2021/03/01 00:40:12;;;;;;;13.20;6.97;;;8.40;1.00;;;;;;5102460;28;20952;-81
2021/03/01 00:42:40;;;;;;;10.40;6.90;;;8.20;1.00;;;;;;5111057;28;21159;-80
2021/03/01 00:45:08;;;;;;;14.43;7.43;;;8.10;1.00;;;;;;5112776;27;20540;-80
2021/03/01 00:47:37;;;;;;;8.67;6.20;;;8.20;1.00;;;;;;5110151;28;20473;-81
2021/03/01 00:50:07;;;;;;;10.00;5.80;;;8.10;1.00;;;;;;5111187;28;20448;-81
2021/03/01 00:52:35;;;;;;;10.57;6.90;;;8.10;1.00;;;;;;5104574;28;20459;-81
2021/03/01 00:55:03;;;;;;;10.17;6.80;;;8.10;1.00;;;;;;5085141;28;21163;-81
2021/03/01 00:57:30;;;;;;;10.37;7.57;;;8.70;1.00;;;;;;5101611;28;20484;-81
2021/03/01 00:59:57;;;;;;;9.20;6.73;;;8.00;1.00;;;;;;5108577;28;20453;-79
2021/03/01 01:02:24;;;;;;;7.80;6.10;;;8.10;1.00;;;;;;5086333;28;20457;-79
2021/03/01 01:04:53;;;;;;;6.17;4.93;;;8.50;1.00;;;;;;5089775;28;20437;-81
2021/03/01 01:07:20;;;;;;;9.03;6.43;;;8.50;1.00;;;;;;5082450;28;20468;-81
2021/03/01 01:09:47;;;;;;;7.93;6.20;;;8.00;1.00;;;;;;5103006;28;20448;-81
2021/03/01 01:12:14;;;;;;;9.50;6.50;;;7.90;1.00;;;;;;5087298;28;20453;-81
2021/03/01 01:14:41;;;;;;;10.33;7.17;;;7.90;1.00;;;;;;5094425;28;20619;-81
2021/03/01 01:17:08;;;;;;;7.57;6.17;;;7.90;1.00;;;;;;5107070;28;20476;-80
2021/03/01 01:19:36;;;;;;;8.43;5.80;;;7.90;1.00;;;;;;5103795;27;20471;-81
2021/03/01 01:22:04;;;;;;;9.40;6.07;;;8.40;1.00;;;;;;5096594;28;20457;-81
2021/03/01 01:24:31;;;;;;;6.53;5.20;;;7.80;1.00;;;;;;5102340;28;20453;-81
2021/03/01 01:26:58;;;;;;;7.37;5.10;;;8.40;1.00;;;;;;5082580;28;20477;-81
2021/03/01 01:29:25;;;;;;;7.00;5.73;;;7.80;1.00;;;;;;5090435;28;20473;-82
2021/03/01 01:31:52;;;;;;;8.10;5.87;;;7.80;1.00;;;;;;5099894;28;20705;-81
2021/03/01 01:34:19;;;;;;;6.30;5.07;;;8.30;1.00;;;;;;5102400;28;20459;-80
2021/03/01 01:36:46;;;;;;;10.37;6.40;;;7.70;1.00;;;;;;5109391;28;20468;-80
2021/03/01 01:39:14;;;;;;;10.10;6.40;;;7.70;1.00;;;;;;5101494;28;20448;-81
2021/03/01 01:41:42;;;;;;;11.97;8.03;;;7.70;1.00;;;;;;5112214;28;20521;-81
2021/03/01 01:44:09;;;;;;;8.00;5.87;;;8.00;1.00;;;;;;5092923;28;20472;-81
2021/03/01 01:46:36;;;;;;;8.70;5.80;;;7.60;1.00;;;;;;5110618;28;20497;-80
2021/03/01 01:49:04;;;;;;;11.00;7.53;;;7.60;1.00;;;;;;5095796;28;22079;-81
2021/03/01 01:51:32;;;;;;;12.63;6.40;;;7.60;1.00;;;;;;5092322;28;20449;-80
2021/03/01 01:53:59;;;;;;;13.60;8.20;;;7.80;1.00;;;;;;5096094;28;20538;-78
2021/03/01 01:56:28;;;;;;;12.80;7.70;;;7.60;1.00;;;;;;5097759;28;20476;-80
2021/03/01 01:58:55;;;;;;;10.20;7.50;;;7.70;1.00;;;;;;5105905;28;20502;-80
2021/03/01 02:01:22;;;;;;;8.80;6.77;;;7.50;1.00;;;;;;5110319;28;20437;-82
2021/03/01 02:03:53;;;;;;;9.67;6.37;;;7.50;1.00;;;;;;5099326;28;21091;-81
2021/03/01 02:06:35;;;;;;;14.30;6.57;;;7.50;1.00;;;;;;5091521;28;20488;-82
2021/03/01 02:09:13;;;;;;;9.40;6.30;;;7.50;1.00;;;;;;5103616;28;20587;-80
2021/03/01 02:11:54;;;;;;;11.43;7.77;;;7.40;1.00;;;;;;5107944;28;20460;-80
2021/03/01 02:14:30;;;;;;;12.10;6.80;;;7.90;1.00;;;;;;5084824;28;20453;-78
2021/03/01 02:16:57;;;;;;;9.93;7.60;;;7.60;1.00;;;;;;5103267;28;20533;-80
2021/03/01 02:19:25;;;;;;;8.90;6.43;;;7.40;1.00;;;;;;5085708;28;20591;-80
2021/03/01 02:21:53;;;;;;;11.27;6.75;;;7.80;1.00;;;;;;5103912;28;20501;-81
2021/03/01 02:24:25;;;;;;;9.33;6.93;;;8.10;1.00;;;;;;5097474;28;20994;-80
2021/03/01 02:26:57;;;;;;;9.27;6.37;;;7.40;1.00;;;;;;5097649;28;20848;-80
2021/03/01 02:29:25;;;;;;;8.37;6.37;;;7.80;1.00;;;;;;5106321;28;20461;-81
2021/03/01 02:31:57;;;;;;;9.33;6.70;;;8.00;1.00;;;;;;5086761;28;20452;-81
2021/03/01 02:34:31;;;;;;;8.30;6.57;;;7.30;1.00;;;;;;5106786;28;20453;-80
2021/03/01 02:37:02;;;;;;;8.20;6.05;;;7.30;1.00;;;;;;5113508;28;20527;-80
2021/03/01 02:39:33;;;;;;;13.07;7.10;;;7.30;1.00;;;;;;5103987;28;20205;-81
2021/03/01 02:42:01;;;;;;;7.57;5.65;;;7.20;1.00;;;;;;5109773;28;20490;-81
2021/03/01 02:44:29;;;;;;;9.65;6.15;;;7.20;1.00;;;;;;5105629;28;20191;-81
2021/03/01 02:46:59;;;;;;;9.13;5.37;;;7.20;1.00;;;;;;5085843;28;20222;-81
2021/03/01 02:49:27;;;;;;;8.73;5.20;;;7.50;1.00;;;;;;5106327;28;20529;-83
2021/03/01 02:51:56;;;;;;;7.20;5.70;;;7.10;1.00;;;;;;5087448;28;21190;-82
2021/03/01 02:54:25;;;;;;;7.50;6.50;;;7.20;1.00;;;;;;5102617;28;20968;-82
2021/03/01 02:56:53;;;;;;;8.60;6.30;;;7.20;1.00;;;;;;5099722;28;20519;-82
2021/03/01 02:59:23;;;;;;;6.80;5.40;;;7.20;1.00;;;;;;5085641;28;20187;-82
2021/03/01 03:01:51;;;;;;;6.60;5.43;;;7.20;1.00;;;;;;5132839;27;20460;-83
2021/03/01 03:04:20;;;;;;;10.03;6.53;;;7.10;1.00;;;;;;5087206;28;21036;-84
2021/03/01 03:06:49;;;;;;;8.63;5.35;;;7.10;1.00;;;;;;5106430;28;20562;-83
2021/03/01 03:09:16;;;;;;;9.80;5.63;;;7.20;1.00;;;;;;5107474;28;20219;-82
2021/03/01 03:11:46;;;;;;;9.40;5.88;;;7.00;1.00;;;;;;5107023;28;20191;-82
2021/03/01 03:14:19;;;;;;;9.07;6.82;;;6.90;1.00;;;;;;5093144;28;20906;-82
2021/03/01 03:16:48;;;;;;;7.93;5.57;;;7.00;1.00;;;;;;5107019;28;20261;-82
2021/03/01 03:19:16;;;;;;;9.90;5.88;;;7.60;1.00;;;;;;5108865;28;20532;-82
2021/03/01 03:21:43;;;;;;;6.47;4.83;;;6.90;1.00;;;;;;5091301;28;20199;-82
2021/03/01 03:24:11;;;;;;;6.67;5.63;;;7.00;1.00;;;;;;5103419;28;20464;-82
2021/03/01 03:26:38;;;;;;;8.23;5.63;;;6.90;1.00;;;;;;5103813;28;20480;-82
2021/03/01 03:29:06;;;;;;;10.63;5.70;;;7.40;1.00;;;;;;5089160;28;20203;-82
2021/03/01 03:31:33;;;;;;;10.63;5.75;;;6.90;1.00;;;;;;5107564;28;20514;-82
2021/03/01 03:34:01;;;;;;;9.70;5.73;;;6.90;1.00;;;;;;5104235;28;20216;-79
2021/03/01 03:36:30;;;;;;;8.93;5.18;;;6.90;1.00;;;;;;5092414;28;20487;-79
2021/03/01 03:39:00;;;;;;;8.17;5.73;;;6.80;1.00;;;;;;5110344;28;20219;-80
2021/03/01 03:41:29;;;;;;;10.85;6.97;;;6.80;1.00;;;;;;5083990;28;20449;-80
2021/03/01 03:43:58;;;;;;;6.07;5.20;;;7.20;1.00;;;;;;5113366;28;20616;-80
2021/03/01 03:46:28;;;;;;;7.53;4.93;;;6.70;1.00;;;;;;5116822;28;20225;-80
2021/03/01 03:48:56;;;;;;;8.38;5.45;;;6.80;1.00;;;;;;5104259;28;20214;-81
2021/03/01 03:51:28;;;;;;;6.15;5.20;;;6.70;1.00;;;;;;5114302;28;20199;-81
2021/03/01 03:54:01;;;;;;;8.90;5.47;;;6.70;1.00;;;;;;5110656;28;20831;-81
2021/03/01 03:56:30;;;;;;;8.20;5.45;;;6.60;1.00;;;;;;5103908;28;20468;-78
2021/03/01 03:59:01;;;;;;;6.75;5.63;;;6.60;1.00;;;;;;5103491;27;20199;-80
2021/03/01 04:01:32;;;;;;;7.78;5.20;;;6.60;1.00;;;;;;5109939;28;20191;-80
2021/03/01 04:04:04;;;;;;;6.15;5.38;;;6.60;1.00;;;;;;5090959;28;20745;-82
2021/03/01 04:06:32;;;;;;;8.70;5.70;;;6.60;1.00;;;;;;5100070;28;20581;-81
2021/03/01 04:09:00;;;;;;;6.70;4.85;;;6.50;1.00;;;;;;5106429;28;20203;-81
2021/03/01 04:11:28;;;;;;;7.43;4.80;;;6.50;1.00;;;;;;5084219;28;20678;-81
2021/03/01 04:13:57;;;;;;;6.53;4.72;;;6.50;1.00;;;;;;5114203;28;20595;-81
2021/03/01 04:16:24;;;;;;;8.13;4.95;;;6.50;1.00;;;;;;5110086;28;20226;-81
2021/03/01 04:18:57;;;;;;;9.00;6.30;;;7.10;1.00;;;;;;5091549;28;20213;-81
2021/03/01 04:21:27;;;;;;;5.68;4.30;;;7.10;1.00;;;;;;5102126;28;20248;-82
2021/03/01 04:23:57;;;;;;;6.37;5.30;;;6.40;1.00;;;;;;5082608;28;20203;-81
2021/03/01 04:26:25;;;;;;;8.57;5.90;;;6.40;1.00;;;;;;5085650;28;20476;-81
2021/03/01 04:28:52;;;;;;;6.80;5.35;;;6.40;1.00;;;;;;5081925;28;20640;-81
2021/03/01 04:31:21;;;;;;;9.20;6.27;;;6.40;1.00;;;;;;5122342;27;20201;-81
2021/03/01 04:33:50;;;;;;;12.15;7.05;;;7.00;1.00;;;;;;5093469;28;20547;-80
2021/03/01 04:36:19;;;;;;;8.52;5.85;;;6.40;1.00;;;;;;5095144;28;20268;-80
2021/03/01 04:38:46;;;;;;;6.00;5.25;;;6.30;1.00;;;;;;5101791;28;20499;-79
2021/03/01 04:41:16;;;;;;;9.65;6.20;;;6.80;1.00;;;;;;5108851;28;20198;-79
2021/03/01 04:43:43;;;;;;;10.55;6.85;;;7.00;1.00;;;;;;5105712;28;20674;-79
2021/03/01 04:46:13;;;;;;;7.60;5.93;;;6.90;1.00;;;;;;5108973;28;20218;-80
2021/03/01 04:48:42;;;;;;;9.32;6.65;;;6.30;1.00;;;;;;5097450;28;20219;-79
2021/03/01 04:51:10;;;;;;;6.90;5.55;;;6.30;1.00;;;;;;5084540;28;20201;-80
2021/03/01 04:53:38;;;;;;;7.05;5.22;;;7.00;1.00;;;;;;5080206;28;20206;-80
2021/03/01 04:56:07;;;;;;;8.70;6.07;;;6.30;1.00;;;;;;5104426;28;20271;-81
2021/03/01 04:58:36;;;;;;;9.23;6.47;;;6.20;1.00;;;;;;5106125;28;20191;-79
2021/03/01 05:01:06;;;;;;;10.80;6.50;;;6.20;1.00;;;;;;5105231;28;20200;-79
2021/03/01 05:03:34;;;;;;;10.75;6.30;;;6.30;1.00;;;;;;5094661;28;20205;-79
2021/03/01 05:06:02;;;;;;;10.38;5.07;;;6.30;1.00;;;;;;5088960;28;20588;-78
2021/03/01 05:08:29;;;;;;;6.55;5.40;;;6.30;1.00;;;;;;5104298;28;20313;-79
2021/03/01 05:10:57;;;;;;;8.70;5.90;;;6.30;1.00;;;;;;5095606;28;20943;-77
2021/03/01 05:13:25;;;;;;;7.55;5.50;;;6.20;1.00;;;;;;5088036;28;20256;-77
2021/03/01 05:15:52;;;;;;;8.60;6.22;;;6.00;1.00;;;;;;5105581;28;20757;-81
2021/03/01 05:18:20;;;;;;;7.53;6.53;;;6.00;1.00;;;;;;5090774;28;20218;-80
2021/03/01 05:20:47;;;;;;;7.43;4.77;;;6.00;1.00;;;;;;5104247;28;20210;-80
2021/03/01 05:23:14;;;;;;;8.68;5.43;;;6.00;1.00;;;;;;5103898;28;20464;-80
2021/03/01 05:25:41;;;;;;;7.85;6.13;;;6.70;1.00;;;;;;5098708;28;20730;-81
2021/03/01 05:28:11;;;;;;;9.00;6.22;;;6.00;1.00;;;;;;5083783;28;20228;-79
2021/03/01 05:30:38;;;;;;;7.60;5.82;;;6.10;1.00;;;;;;5119663;27;20193;-81
2021/03/01 05:33:06;;;;;;;8.20;5.40;;;6.10;1.00;;;;;;5080466;28;20716;-81
2021/03/01 05:35:33;;;;;;;6.55;4.60;;;6.10;1.00;;;;;;5095663;28;20267;-80
2021/03/01 05:38:00;;;;;;;7.35;5.60;;;6.10;1.00;;;;;;5103907;28;20213;-81
2021/03/01 05:40:27;;;;;;;8.68;5.30;;;6.30;1.00;;;;;;5084746;28;20260;-82
2021/03/01 05:42:56;;;;;;;10.15;5.75;;;6.70;1.00;;;;;;5083994;28;20272;-80
2021/03/01 05:45:25;;;;;;;7.57;5.50;;;6.10;1.00;;;;;;5099031;28;20198;-83
2021/03/01 05:47:52;;;;;;;7.22;4.80;;;6.00;1.00;;;;;;5103387;28;20197;-81
2021/03/01 05:50:24;;;;;;;9.27;6.10;;;6.00;1.00;;;;;;5070405;28;20234;-82
2021/03/01 05:52:57;;;;;;;7.18;5.60;;;6.00;1.00;;;;;;5072305;28;20195;-79
2021/03/01 05:55:25;;;;;;;5.90;5.03;;;6.20;1.00;;;;;;5097063;28;20731;-79
2021/03/01 05:57:54;;;;;;;7.60;5.65;;;6.00;1.00;;;;;;5098570;28;20251;-79
2021/03/01 06:00:24;;;;;;;8.15;5.55;;;6.00;1.00;;;;;;5103052;28;20191;-79
2021/03/01 06:02:52;;;;;;;9.93;6.45;;;6.00;1.00;;;;;;5101591;28;20190;-79
2021/03/01 06:05:20;;;;;;;8.68;5.47;;;6.00;1.00;;;;;;5077145;28;20210;-78
2021/03/01 06:07:48;;;;;;;11.32;7.13;;;6.00;1.00;;;;;;5098679;28;21052;-78
2021/03/01 06:10:15;;;;;;;9.43;6.70;;;6.00;1.00;;;;;;5107592;28;20210;-79
2021/03/01 06:12:42;;;;;;;9.25;5.88;;;6.00;1.00;;;;;;5115916;27;20198;-79
2021/03/01 06:15:11;;;;;;;8.23;6.15;;;6.00;1.00;;;;;;5092987;28;20547;-79
2021/03/01 06:17:39;;;;;;;9.30;6.05;;;5.90;1.00;;;;;;5093612;27;20342;-78
2021/03/01 06:20:10;;;;;;;8.32;6.03;;;5.90;1.00;;;;;;5084324;28;20439;-75
2021/03/01 06:22:42;;;;;;;11.88;7.78;;;5.90;1.00;;;;;;5070390;28;20485;-75
2021/03/01 06:25:11;;;;;;;9.25;6.38;;;5.90;1.00;;;;;;5078398;28;20209;-76
2021/03/01 06:27:50;;;;;;;7.47;5.85;;;6.00;1.00;;;;;;5087600;28;20220;-76
2021/03/01 06:30:19;;;;;;;11.10;6.97;;;5.90;1.00;;;;;;5087793;28;21201;-77
2021/03/01 06:33:12;;;;;;;7.07;6.38;;;5.90;1.00;;;;;;5087574;28;20238;-76
2021/03/01 06:35:43;;;;;;;8.50;6.68;;;5.90;1.00;;;;;;5090763;27;20330;-76
2021/03/01 06:38:29;;;;;;;10.20;6.63;;;6.50;1.00;;;;;;5089535;28;20212;-76
2021/03/01 06:41:12;;;;;;;8.35;6.35;;;5.90;1.00;;;;;;5096371;27;20193;-78
2021/03/01 06:43:41;;;;;;;8.95;5.95;;;6.30;1.00;;;;;;5096073;28;20214;-78
2021/03/01 06:46:10;;;;;;;9.80;6.57;;;6.40;1.00;;;;;;5114792;27;20250;-78
2021/03/01 06:48:39;;;;;;;8.68;6.60;;;5.90;1.00;;;;;;5097808;28;20785;-78
2021/03/01 06:51:08;;;;;;;10.88;6.78;;;5.90;1.00;;;;;;5076827;28;20258;-80
2021/03/01 06:53:36;;;;;;;12.60;7.47;;;6.00;1.00;;;;;;5082503;28;20217;-77
2021/03/01 06:56:05;;;;;;;9.43;6.40;;;6.00;1.00;;;;;;5096815;28;20211;-76
2021/03/01 06:58:37;;;;;;;10.10;6.65;;;6.00;1.00;;;;;;5096788;28;20195;-77
2021/03/01 07:01:07;;;;;;;9.73;6.78;;;5.90;1.00;;;;;;5092920;28;20373;-77
2021/03/01 07:03:36;;;;;;;9.30;6.57;;;6.60;1.00;;;;;;5097024;28;20193;-76
2021/03/01 07:06:05;;;;;;;9.43;6.50;;;6.50;1.00;;;;;;5097211;27;20234;-77
2021/03/01 07:08:35;;;;;;;10.25;6.82;;;6.30;1.00;;;;;;5098562;28;20199;-76
2021/03/01 07:11:04;;;;;;;10.77;7.30;;;6.00;1.00;;;;;;5105228;28;20206;-78
2021/03/01 07:13:32;;;;;;;9.43;6.40;;;6.80;1.00;;;;;;5107219;28;20198;-77
2021/03/01 07:16:01;;;;;;;10.60;7.70;;;5.90;1.00;;;;;;5094264;28;20344;-76
2021/03/01 07:18:29;;;;;;;9.80;6.13;;;5.90;1.00;;;;;;5113023;28;20553;-76
2021/03/01 07:20:57;;;;;;;10.68;7.18;;;6.00;1.00;;;;;;5103147;28;20729;-76
2021/03/01 07:23:27;;;;;;;11.98;6.80;;;5.90;1.00;;;;;;5111314;28;20212;-76
2021/03/01 07:25:54;;;;;;;10.45;7.50;;;6.30;1.00;;;;;;5115643;28;20218;-76
2021/03/01 07:28:22;;;;;;;10.15;6.45;;;6.20;1.00;;;;;;5107440;28;20198;-76
2021/03/01 07:30:50;;;;;;;10.25;7.18;;;6.70;1.00;;;;;;5105217;28;20195;-77
2021/03/01 07:33:18;;;;;;;9.52;7.05;;;6.30;1.00;;;;;;5107891;28;20812;-77
2021/03/01 07:35:45;;;;;;;9.70;6.78;;;6.40;1.00;;;;;;5100807;28;20211;-77
2021/03/01 07:38:13;;;;;;;7.63;6.30;;;6.60;1.00;;;;;;5109061;28;20202;-77
2021/03/01 07:40:43;;;;;;;9.75;7.28;;;6.50;1.00;;;;;;5104799;28;20558;-76
2021/03/01 07:43:14;;;;;;;11.82;6.97;;;6.50;1.00;;;;;;5124223;27;20195;-76
2021/03/01 07:45:43;;;;;;;9.10;7.28;;;6.60;1.00;;;;;;5108685;28;20640;-76
2021/03/01 07:48:15;;;;;;;9.82;7.63;;;6.70;1.00;;;;;;5090401;28;20222;-76
2021/03/01 07:50:45;;;;;;;14.50;8.10;;;6.80;1.00;;;;;;5101433;27;20494;-76
2021/03/01 07:53:50;;;;;;;8.55;7.13;;;6.90;1.00;;;;;;5122904;27;21016;-76
2021/03/01 07:56:51;;;;;;;12.07;7.60;;;6.90;1.00;;;;;;5100388;28;20256;-76
2021/03/01 07:59:33;;;;;;;11.47;7.13;;;7.20;1.00;;;;;;5101892;28;20745;-76
2021/03/01 08:02:22;;;;;;;10.00;7.93;;;7.60;1.00;;;;;;5107737;28;20498;-76
2021/03/01 08:04:50;;;;;;;13.77;9.80;;;7.40;1.00;;;;;;5110742;28;20454;-77
2021/03/01 08:07:18;;;;;;;10.47;7.30;;;7.60;1.00;;;;;;5109398;28;20610;-76
2021/03/01 08:09:53;;;;;;;13.10;7.67;;;8.00;1.00;;;;;;5121366;27;22540;-75
2021/03/01 08:12:59;;;;;;;15.53;8.13;;;8.40;1.00;;;;;;5122924;27;20448;-75
2021/03/01 08:15:42;;;;;;;14.00;8.20;;;8.60;1.00;;;;;;5092617;28;20867;-74
2021/03/01 08:18:12;;;;;;;14.37;7.40;;;8.80;1.00;;;;;;5102690;28;20449;-75
2021/03/01 08:20:52;;;;;;;11.40;7.13;;;9.10;1.00;;;;;;5107584;28;20438;-76
2021/03/01 08:23:33;;;;;;;10.90;6.67;;;9.40;1.00;;;;;;5110858;28;20445;-76
2021/03/01 08:26:02;;;;;;;16.10;8.20;;;9.80;1.00;;;;;;5103099;28;20540;-75
2021/03/01 08:28:50;;;;;;;9.93;7.43;;;10.20;1.00;;;;;;5100667;27;20468;-77
2021/03/01 08:31:42;;;;;;;11.57;7.60;;;10.40;1.00;;;;;;5109702;28;20463;-77
2021/03/01 08:34:23;;;;;;;11.17;6.87;;;10.80;1.00;;;;;;5106631;27;20451;-77
2021/03/01 08:36:51;;;;;;;14.60;6.50;;;11.10;1.00;;;;;;5085903;28;20557;-77
2021/03/01 08:39:53;;;;;;;9.97;7.40;;;11.40;1.00;;;;;;5107033;28;20460;-77
2021/03/01 08:42:56;;;;;;;9.60;6.10;;;11.60;1.00;;;;;;5120522;27;20456;-76
2021/03/01 08:45:29;;;;;;;6.23;5.47;;;12.10;1.00;;;;;;5096244;28;20458;-76
2021/03/01 08:47:59;;;;;;;5.40;4.30;;;12.50;1.00;;;;;;5108520;28;20448;-77
2021/03/01 08:50:29;;;;;;;6.10;4.60;;;12.70;1.00;;;;;;5110522;27;20460;-76
2021/03/01 08:53:12;;;;;;;5.17;3.73;;;14.00;1.00;;;;;;5108309;28;21189;-79
2021/03/01 08:55:41;;;;;;;6.10;4.30;;;13.30;1.00;;;;;;5111443;28;20468;-79
2021/03/01 08:58:12;;;;;;;4.87;4.47;;;13.60;1.00;;;;;;5106081;28;22052;-78
2021/03/01 09:00:49;;;;;;;6.60;4.33;;;13.90;1.00;;;;;;5111165;28;20530;-79
2021/03/01 09:03:26;;;;;;;5.23;4.60;;;14.30;1.00;;;;;;5103002;28;20462;-77
2021/03/01 09:05:55;;;;;;;5.23;4.20;;;14.60;1.00;;;;;;5112894;28;20480;-78
2021/03/01 09:08:28;;;;;;;25.27;12.20;;;14.90;1.00;;;;;;5104057;28;20460;-79
2021/03/01 09:10:55;;;;;;;6.77;4.83;;;15.20;1.00;;;;;;5112780;28;21095;-77
2021/03/01 09:13:23;;;;;;;7.60;5.43;;;15.50;1.00;;;;;;5113088;28;20453;-78
2021/03/01 09:15:52;;;;;;;4.63;4.20;;;15.70;1.00;;;;;;5109773;28;20478;-78
2021/03/01 09:18:20;;;;;;;5.33;4.80;;;16.00;1.00;;;;;;5102887;28;20449;-77
2021/03/01 09:20:51;;;;;;;5.80;5.20;;;16.30;1.00;;;;;;5101566;28;20457;-78
2021/03/01 09:23:36;;;;;;;6.67;4.40;;;16.60;1.00;;;;;;5110582;28;20475;-78
2021/03/01 09:26:05;;;;;;;5.37;4.83;;;16.70;1.00;;;;;;5108927;28;20895;-79
2021/03/01 09:28:34;;;;;;;6.87;5.17;;;17.00;1.70;;;;;;5108045;28;20992;-79
2021/03/01 09:31:13;;;;;;;5.30;4.73;;;17.40;3.60;;;;;;5106773;28;20469;-76
2021/03/01 09:33:42;;;;;;;6.53;5.13;;;17.70;6.10;;;;;;5106112;27;20459;-77
2021/03/01 09:36:10;;;;;;;4.90;4.47;;;18.50;7.20;;;;;;5095147;28;21030;-78
2021/03/01 09:38:40;;;;;;;8.93;4.40;;;18.00;7.50;;;;;;5090625;28;20546;-76
2021/03/01 09:41:09;;;;;;;5.70;5.20;;;18.20;8.40;;;;;;5103670;27;20458;-77
2021/03/01 09:43:38;;;;;;;5.50;4.60;;;18.20;7.40;;;;;;5107399;28;20449;-76
2021/03/01 09:46:06;;;;;;;5.37;4.90;;;18.60;10.60;;;;;;5106425;28;20473;-77
2021/03/01 09:48:40;;;;;;;4.70;4.23;;;19.10;13.90;;;;;;5104546;28;20456;-78
2021/03/01 09:51:09;;;;;;;4.80;4.40;;;19.40;16.80;;;;;;5105356;28;20484;-77
2021/03/01 09:53:37;;;;;;;5.40;4.93;;;19.70;18.40;;;;;;5090455;28;20452;-77
2021/03/01 09:56:05;;;;;;;6.00;5.37;;;19.50;15.10;;;;;;5104056;28;20473;-79
2021/03/01 09:58:33;;;;;;;6.27;4.27;;;19.40;15.70;;;;;;5084914;28;20459;-79
2021/03/01 10:01:09;;;;;;;5.20;4.50;;;19.30;13.30;;;;;;5108603;28;20460;-79
2021/03/01 10:03:40;;;;;;;5.00;4.70;;;19.40;13.10;;;;;;5090077;28;20463;-79
2021/03/01 10:06:07;;;;;;;5.53;4.93;;;19.50;13.80;;;;;;5090686;28;20478;-79
2021/03/01 10:08:35;;;;;;;4.97;4.57;;;19.30;14.10;;;;;;5108801;28;20453;-79
2021/03/01 10:11:03;;;;;;;5.60;5.10;;;19.60;14.60;;;;;;5102327;28;20474;-80
2021/03/01 10:13:33;;;;;;;5.35;4.85;;;19.70;14.30;;;;;;5101417;28;20909;-80
2021/03/01 10:16:01;;;;;;;6.53;4.70;;;19.60;14.50;;;;;;5099647;28;20213;-80
2021/03/01 10:18:33;;;;;;;5.33;4.87;;;19.70;16.60;;;;;;5101927;28;20455;-79
2021/03/01 10:21:04;;;;;;;6.30;5.30;;;20.20;18.80;;;;;;5106694;28;20432;-78
2021/03/01 10:23:36;;;;;;;6.40;4.70;;;20.40;19.20;;;;;;5102736;27;20450;-79
2021/03/01 10:26:16;;;;;;;5.57;4.83;;;20.30;17.60;;;;;;5104782;28;20892;-78
2021/03/01 10:28:55;;;;;;;4.23;3.83;;;20.80;20.60;;;;;;5081562;28;20473;-77
2021/03/01 10:31:25;;;;;;;5.50;4.50;;;21.10;23.10;;;;;;5102618;28;20540;-77
2021/03/01 10:33:54;;;;;;;5.20;4.80;;;21.40;26.70;;;;;;5099480;28;20555;-78
2021/03/01 10:36:25;;;;;;;5.50;5.07;;;21.60;26.10;;;;;;5107597;27;21305;-78
2021/03/01 10:39:01;;;;;;;5.13;4.63;;;21.60;26.30;;;;;;5101024;28;21032;-78
2021/03/01 10:41:30;;;;;;;7.47;4.90;;;21.30;23.80;;;;;;5107235;28;20875;-79
2021/03/01 10:44:01;;;;;;;5.93;4.53;;;21.40;23.90;;;;;;5109273;28;20464;-78
2021/03/01 10:46:46;;;;;;;7.60;5.90;;;21.70;26.20;;;;;;5103825;28;20465;-78
2021/03/01 10:49:16;;;;;;;5.37;4.97;;;21.70;25.10;;;;;;5093773;28;21261;-79
2021/03/01 10:51:45;;;;;;;6.87;5.00;;;22.10;29.30;;;;;;5099039;28;20452;-78
2021/03/01 10:54:12;;;;;;;4.40;4.10;;;22.30;29.30;;;;;;5095418;28;20461;-77
2021/03/01 10:56:40;;;;;;;4.73;4.33;;;22.20;27.90;;;;;;5098598;28;20461;-78
2021/03/01 10:59:08;;;;;;;5.80;4.17;;;21.80;24.40;;;;;;5104616;28;20479;-78
2021/03/01 11:01:36;;;;;;;5.20;4.70;;;21.90;26.30;;;;;;5123845;27;20453;-77
2021/03/01 11:04:05;;;;;;;5.50;4.77;;;22.10;26.50;;;;;;5117766;27;21038;-78
2021/03/01 11:06:33;;;;;;;4.60;4.20;;;22.10;26.30;;;;;;5087930;28;20559;-77
2021/03/01 11:09:03;;;;;;;4.87;4.47;;;22.40;29.00;;;;;;5101078;28;20465;-78
2021/03/01 11:11:30;;;;;;;5.10;4.40;;;23.00;33.80;;;;;;5110086;28;20464;-78
2021/03/01 11:13:57;;;;;;;4.50;4.20;;;23.10;34.10;;;;;;5087933;28;20460;-81
2021/03/01 11:16:25;;;;;;;4.47;4.17;;;22.90;33.20;;;;;;5087209;28;20680;-80
2021/03/01 11:18:52;;;;;;;4.07;3.67;;;22.90;35.00;;;;;;5121605;27;21026;-75
2021/03/01 11:21:19;;;;;;;4.00;3.70;;;22.70;28.00;;;;;;5109432;27;20457;-74
2021/03/01 11:23:47;;;;;;;4.50;3.97;;;22.60;30.30;;;;;;5100530;28;20464;-74
2021/03/01 11:26:15;;;;;;;4.60;4.20;;;22.50;26.20;;;;;;5104290;28;20483;-74
2021/03/01 11:28:42;;;;;;;3.90;3.37;;;22.60;27.50;;;;;;5115341;28;20465;-74
2021/03/01 11:31:09;;;;;;;3.70;3.40;;;22.60;26.30;;;;;;5121688;27;20452;-74
2021/03/01 11:33:37;;;;;;;4.00;3.70;;;23.00;29.30;;;;;;5102620;28;20198;-75
2021/03/01 11:36:05;;;;;;;4.10;3.80;;;22.60;25.80;;;;;;5088477;28;20479;-72
2021/03/01 11:38:42;;;;;;;3.70;3.30;;;22.00;19.70;;;;;;5104777;28;20526;-72
2021/03/01 11:41:09;;;;;;;4.10;3.73;;;21.10;11.60;;;;;;5103223;28;20457;-73
2021/03/01 11:43:48;;;;;;;3.70;3.40;;;21.10;10.70;;;;;;5103834;28;20537;-74
2021/03/01 11:46:15;;;;;;;3.50;3.10;;;20.30;15.20;;;;;;5103692;28;20485;-73
2021/03/01 11:48:43;;;;;;;3.60;3.30;;;19.70;9.10;;;;;;5102221;28;20460;-72
2021/03/01 11:51:10;;;;;;;3.47;2.90;;;19.50;1.00;;;;;;5101497;28;20483;-73
2021/03/01 11:53:38;;;;;;;6.00;3.03;;;19.40;1.00;;;;;;5100512;28;20449;-73
2021/03/01 11:56:07;;;;;;;3.00;2.33;;;19.20;1.00;;;;;;5102441;28;20465;-73
2021/03/01 11:58:34;;;;;;;3.57;3.03;;;19.20;1.00;;;;;;5096092;28;20440;-73
2021/03/01 12:01:03;;;;;;;2.50;2.30;;;19.20;1.00;;;;;;5103880;28;21045;-73
2021/03/01 12:03:32;;;;;;;3.00;2.50;;;19.10;1.00;;;;;;5075749;28;20461;-73
2021/03/01 12:06:00;;;;;;;2.80;2.60;;;19.20;1.00;;;;;;5104779;28;20445;-72
2021/03/01 12:08:27;;;;;;;2.03;1.40;;;19.20;1.00;;;;;;5097796;28;20248;-71
2021/03/01 12:10:54;;;;;;;2.73;1.50;;;19.10;1.00;;;;;;5107013;28;20541;-74
2021/03/01 12:13:22;;;;;;;1.60;1.20;;;18.90;1.00;;;;;;5084960;28;20473;-73
2021/03/01 12:15:49;;;;;;;2.93;2.30;;;19.00;1.00;;;;;;5097882;28;20482;-74
2021/03/01 12:18:17;;;;;;;3.67;1.63;;;19.00;1.00;;;;;;5102743;27;20445;-74
2021/03/01 12:20:44;;;;;;;1.30;1.20;;;19.10;1.00;;;;;;5108842;28;20449;-73
2021/03/01 12:23:13;;;;;;;2.60;1.90;;;19.20;1.00;;;;;;5086970;28;20823;-72
2021/03/01 12:25:40;;;;;;;2.90;2.10;;;19.10;1.00;;;;;;5104148;28;20480;-73
2021/03/01 12:28:07;;;;;;;1.53;1.43;;;19.20;1.00;;;;;;5099259;28;21271;-73
2021/03/01 12:30:34;;;;;;;2.03;1.83;;;19.20;1.00;;;;;;5086593;28;20468;-73
2021/03/01 12:33:03;;;;;;;2.80;1.50;;;19.10;1.00;;;;;;5102505;27;20485;-73
2021/03/01 12:35:32;;;;;;;1.80;1.10;;;18.70;1.00;;;;;;5085670;28;20452;-73
2021/03/01 12:38:00;;;;;;;2.17;1.67;;;18.80;1.00;;;;;;5126096;27;20469;-74
2021/03/01 12:40:29;;;;;;;1.63;1.40;;;19.10;1.00;;;;;;5104330;28;20816;-74
2021/03/01 12:42:59;;;;;;;2.80;2.20;;;18.90;1.00;;;;;;5097571;28;20465;-75
2021/03/01 12:45:27;;;;;;;2.30;2.10;;;19.00;1.00;;;;;;5103689;27;20533;-75
2021/03/01 12:47:54;;;;;;;3.00;1.97;;;18.80;1.00;;;;;;5118901;27;20464;-75
2021/03/01 12:50:22;;;;;;;2.20;2.00;;;18.50;1.00;;;;;;5108705;28;20465;-75
2021/03/01 12:52:50;;;;;;;2.53;1.90;;;18.80;1.00;;;;;;5108778;28;20195;-74
2021/03/01 12:55:18;;;;;;;1.53;1.40;;;18.70;1.00;;;;;;5108148;28;20463;-73
2021/03/01 12:57:45;;;;;;;1.80;1.37;;;18.30;1.00;;;;;;5107298;27;20870;-73
2021/03/01 13:00:13;;;;;;;1.33;1.20;;;18.30;1.00;;;;;;5110830;27;20943;-72
2021/03/01 13:02:40;;;;;;;2.50;1.60;;;18.40;1.00;;;;;;5107353;28;20461;-74
2021/03/01 13:05:10;;;;;;;1.50;1.40;;;18.40;1.00;;;;;;5100473;28;20453;-72
2021/03/01 13:07:38;;;;;;;1.13;1.03;;;18.40;1.00;;;;;;5102204;28;20479;-73
2021/03/01 13:10:09;;;;;;;1.60;1.50;;;18.50;1.00;;;;;;5099606;28;21073;-72
2021/03/01 13:12:36;;;;;;;3.17;1.47;;;18.60;1.00;;;;;;5104889;28;20449;-73
2021/03/01 13:15:06;;;;;;;1.30;1.20;;;18.70;1.00;;;;;;5109890;28;20463;-73